Latest Coastal Weather Observations for Adelaide Airport

IDS60701

Issued at 9:35 pm CDT Thursday 23 October 2014 (issued every 10 minutes, with the page automatically refreshed every 10 minutes)

About coastal observations | Map of coastal stations | Coastal observations for SA | Marine services | Other Formats
Station Details ID: 023034 Name: ADELAIDE AIRPORT Lat: -34.95 Lon: 138.52 Height: 2.0 m
Data from the previous 72 hours. | See also: Recent months at Adelaide Airport
Date/Time
CDT
Temp

°C
Wind Pressure Rain
since 9am
mm
Weather Cloud Vis
km
Sea
Height
m
Swell
Dir
 
Speed
knots
Gust
knots
hPa Trend Height
m
Period
s
Dir
23/09:30pm 16.0 WSW 5 6 1015.6 - 0.0 - - 10 - - - -
23/09:00pm 16.0 W 5 6 1015.4 F 0.0 Fine Mostly cloudy 25 - - - -
23/08:30pm 16.4 W 5 5 1015.2 - 0.0 - - 10 - - - -
23/08:00pm 16.7 WSW 3 4 1014.9 - 0.0 - - 10 - - - -
23/07:30pm 17.4 SW 6 8 1015.1 - 0.0 - - 10 - - - -
23/07:00pm 17.8 SW 7 9 1015.0 - 0.0 - - 10 - - - -
23/06:30pm 17.9 SW 7 9 1014.6 - 0.0 - - 10 - - - -
23/06:00pm 17.7 SSW 8 10 1014.4 S 0.0 Fine Mostly cloudy 30 - - - -
23/05:30pm 18.5 SW 13 16 1014.4 - 0.0 - - 10 - - - -
23/05:00pm 18.5 SW 12 15 1014.5 - 0.0 - - 10 - - - -
23/04:30pm 18.3 SW 14 17 1014.4 - 0.0 - - 10 - - - -
23/04:00pm 18.9 SW 12 15 1014.5 - 0.0 - - 10 - - - -
23/03:30pm 19.2 SW 12 19 1014.5 - 0.0 - - 10 - - - -
23/03:00pm 18.5 SW 11 14 1014.7 F 0.0 Fine Mostly cloudy 30 - - - -
23/02:30pm 18.9 WSW 10 12 1015.1 - 0.0 - - 10 - - - -
23/02:00pm 18.7 WSW 13 16 1015.5 - 0.0 - - 10 - - - -
23/01:30pm 19.1 WSW 12 15 1015.8 - 0.0 - - 10 - - - -
23/01:00pm 20.0 WSW 10 12 1016.0 - 0.0 - - 10 - - - -
23/12:30pm 20.1 W 11 14 1016.3 - 0.0 - - 10 - - - -
23/12:00pm 19.9 W 8 12 1016.7 F 0.0 Fine Mostly cloudy 30 - - - -
23/11:30am 20.0 WNW 6 11 1017.1 - 0.0 - Mostly clear 10 - - - -
23/11:00am 19.8 N 6 8 1017.1 - 0.0 - Mostly clear 10 - - - -
23/10:30am 18.9 NW 8 11 1017.4 - 0.0 - Mostly clear 10 - - - -
23/10:00am 19.0 NE 3 8 1017.8 - 0.0 - Mostly clear 10 - - - -
23/09:30am 18.1 NNW 4 6 1017.8 - 0.0 - Mostly clear 10 - - - -
23/09:00am 17.4 NNE 4 6 1017.9 F 0.0 Fine Mostly cloudy 30 - - - -
23/08:30am 17.3 NE 5 7 1018.0 - 0.0 - Mostly clear 10 - - - -
23/08:00am 16.6 ESE 7 12 1018.1 - 0.0 - Mostly clear 10 - - - -
23/07:30am 15.3 S 6 8 1018.2 - 0.0 - Mostly clear 10 - - - -
23/07:00am 14.7 SSE 9 11 1018.0 - 0.0 - Mostly clear 10 - - - -
23/06:30am 14.4 SSE 11 14 1017.8 - 0.0 - Mostly clear 10 - - - -
23/06:00am 14.4 SSE 13 17 1017.7 F 0.0 Haze Partly cloudy 15 - - - -
23/05:54am 14.4 SSE 13 17 1017.7 - 0.0 - Mostly clear 10 - - - -
23/05:30am 14.7 SSE 11 15 1017.7 - 0.0 - Partly cloudy 10 - - - -
23/05:00am 14.9 SSE 11 15 1017.3 - 0.0 - Mostly cloudy 10 - - - -
23/04:30am 15.0 SSE 12 16 1017.7 - 0.0 - Mostly cloudy 10 - - - -
23/04:00am 14.8 SSE 10 15 1017.8 - 0.0 - Mostly cloudy 10 - - - -
23/03:50am 14.9 SSE 13 18 1017.9 - 0.0 - Partly cloudy 10 - - - -
23/03:30am 14.7 SSE 13 18 1018.0 - 0.0 - Mostly clear 10 - - - -
23/03:00am 14.6 SSE 10 15 1018.0 R 0.0 Fine Mostly clear 20 - - - -
23/02:30am 14.7 S 9 13 1018.4 - 0.0 - Mostly clear 10 - - - -
23/02:00am 14.5 S 11 15 1018.6 - 0.0 - Mostly clear 10 - - - -
23/01:30am 14.8 S 9 13 1018.8 - 0.0 - Mostly clear 10 - - - -
23/01:00am 14.9 S 9 14 1018.8 - 0.0 - Mostly clear 10 - - - -
23/12:30am 15.0 S 10 14 1018.8 - 0.0 - Mostly clear 10 - - - -
23/12:00am 15.3 S 12 15 1019.0 F 0.0 Fine Partly cloudy 20 - - - -
 
Date/Time
CDT
Temp

°C
Wind Pressure Rain
since 9am
mm
Weather Cloud Vis
km
Sea
Height
m
Swell
Dir
 
Speed
knots
Gust
knots
hPa Trend Height
m
Period
s
Dir
22/11:30pm 15.3 S 13 16 1019.4 - 0.0 - Mostly clear 10 - - - -
22/11:00pm 15.5 S 11 15 1019.6 - 0.0 - Mostly clear 10 - - - -
22/10:30pm 15.6 S 14 18 1019.6 - 0.0 - Mostly clear 10 - - - -
22/10:00pm 15.9 S 11 16 1019.8 - 0.0 - Mostly clear 10 - - - -
22/09:30pm 16.3 SSW 12 17 1019.6 - 0.0 - Mostly clear 10 - - - -
22/09:00pm 16.8 SSW 7 8 1019.3 R 0.0 Fine Mostly cloudy 25 - - - -
22/08:30pm 17.7 S 12 18 1018.9 - 0.0 - Mostly clear 10 - - - -
22/08:00pm 19.0 SSE 12 16 1018.3 - 0.0 - Mostly clear 10 - - - -
22/07:30pm 20.1 SSE 15 19 1017.6 - 0.0 - Mostly clear 10 - - - -
22/07:00pm 19.9 SSE 11 15 1017.0 - 0.0 - Mostly clear 10 - - - -
22/06:30pm 19.3 SSW 13 17 1016.9 - 0.0 - - 10 - - - -
22/06:00pm 19.7 SSW 13 20 1016.5 R 0.0 Haze Partly cloudy 25 - - - -
22/05:30pm 20.6 SW 14 18 1016.4 - 0.0 - - 10 - - - -
22/05:00pm 20.8 SW 15 18 1016.3 - 0.0 - - 10 - - - -
22/04:30pm 21.8 SSW 15 20 1016.0 - 0.0 - - 10 - - - -
22/04:00pm 21.6 SSW 18 22 1016.0 - 0.0 - - 10 - - - -
22/03:30pm 21.1 SSW 16 20 1016.1 - 0.0 - - 10 - - - -
22/03:00pm 22.4 SW 14 18 1016.2 R 0.0 Haze Partly cloudy 20 - - - -
22/02:30pm 23.3 SSW 19 26 1016.3 - 0.0 - - 10 - - - -
22/02:00pm 23.2 SW 19 27 1016.0 - 0.0 - - 10 - - - -
22/01:30pm 22.8 SW 18 25 1016.1 - 0.0 - - 10 - - - -
22/01:00pm 23.3 SSW 14 18 1016.2 - 0.0 - - 10 - - - -
22/12:30pm 23.6 SW 13 17 1016.5 - 0.0 - - 10 - - - -
22/12:00pm 23.7 SW 10 13 1016.5 R 0.0 Haze Mostly clear 25 - - - -
22/11:30am 23.3 WSW 9 12 1016.6 - 0.0 - - 10 - - - -
22/11:00am 24.4 W 8 11 1016.5 - 0.0 - - 10 - - - -
22/10:30am 24.6 WSW 7 8 1016.5 - 0.0 - - 10 - - - -
22/10:00am 22.3 WSW 8 10 1016.5 - 0.0 - - 10 - - - -
22/09:30am 21.9 W 5 6 1016.3 - 0.0 - - 10 - - - -
22/09:00am 21.6 NW 5 7 1016.2 S 0.0 Haze Mostly clear 25 - - - -
22/08:30am 22.9 CALM 0 0 1016.1 - 0.0 - - 10 - - - -
22/08:00am 20.1 SW 1 3 1016.0 - 0.0 - - 10 - - - -
22/07:30am 18.7 WSW 5 6 1015.8 - 0.0 - - 10 - - - -
22/07:00am 18.2 SSW 7 10 1015.7 - 0.0 - - 10 - - - -
22/06:30am 19.6 NW 5 11 1015.3 - 0.0 - - 10 - - - -
22/06:00am 20.4 SSW 5 6 1015.0 R 0.0 Fine Partly cloudy 30 - - - -
22/05:30am 18.7 SSE 5 6 1014.3 - 0.0 - - 10 - - - -
22/05:00am 18.7 E 2 5 1014.4 - 0.0 - - 10 - - - -
22/04:30am 20.5 SE 3 5 1014.3 - 0.0 - - 10 - - - -
22/04:00am 21.2 NE 4 6 1014.3 - 0.0 - - 10 - - - -
22/03:30am 18.6 ESE 4 8 1014.2 - 0.0 - - 10 - - - -
22/03:00am 21.2 E 4 6 1014.6 R 0.0 Fine Mostly clear 30 - - - -
22/02:30am 19.5 E 5 6 1014.9 - 0.0 - - 10 - - - -
22/02:00am 20.4 SW 6 8 1015.4 - 0.0 - - 10 - - - -
22/01:30am 21.9 SW 12 16 1015.8 - 0.0 - - 10 - - - -
22/01:05am 23.5 SSW 15 19 1015.7 - 0.0 - - 10 - - - -
22/01:00am 24.9 NE 6 8 1015.6 - 0.0 - - 10 - - - -
22/12:30am 25.0 NNE 8 9 1015.4 - 0.0 - - 10 - - - -
22/12:00am 25.9 NE 6 7 1015.8 F 0.0 Fine Mostly cloudy 30 - - - -
 
Date/Time
CDT
Temp

°C
Wind Pressure Rain
since 9am
mm
Weather Cloud Vis
km
Sea
Height
m
Swell
Dir
 
Speed
knots
Gust
knots
hPa Trend Height
m
Period
s
Dir
21/11:30pm 25.7 NE 6 8 1016.2 - 0.0 - - 10 - - - -
21/11:00pm 27.3 NNE 8 9 1016.5 - 0.0 - - 10 - - - -
21/10:30pm 30.2 NNE 7 11 1016.7 - 0.0 - - 10 - - - -
21/10:00pm 26.5 E 7 8 1016.7 - 0.0 - - 10 - - - -
21/09:30pm 27.0 NE 8 9 1016.5 - 0.0 - - 10 - - - -
21/09:00pm 27.4 NNE 4 4 1016.2 F 0.0 Fine Cloudy 30 - - - -
21/08:30pm 27.6 E 9 10 1015.8 - 0.0 - - 10 - - - -
21/08:00pm 28.3 E 7 9 1015.7 - 0.0 - - 10 - - - -
21/07:30pm 30.0 E 8 9 1015.9 - 0.0 - - 10 - - - -
21/07:00pm 32.3 E 6 8 1015.8 - 0.0 - - 10 - - - -
21/06:30pm 33.0 E 4 5 1015.8 - 0.0 - - 10 - - - -
21/06:00pm 33.5 ESE 4 5 1015.8 F 0.0 Fine Mostly cloudy 30 - - - -
21/05:30pm 34.3 CALM 0 0 1015.9 - 0.0 - - 10 - - - -
21/05:00pm 34.0 CALM 0 0 1016.0 - 0.0 - - 10 - - - -
21/04:30pm 33.7 SW 4 5 1016.1 - 0.0 - - 10 - - - -
21/04:00pm 33.9 W 6 7 1016.4 - 0.0 - - 10 - - - -
21/03:30pm 35.1 W 8 11 1016.4 - 0.0 - - 10 - - - -
21/03:00pm 35.8 NW 8 10 1016.6 F 0.0 Fine Mostly cloudy 30 - - - -
21/02:30pm 36.0 NW 9 14 1017.1 - 0.0 - - 10 - - - -
21/02:00pm 36.3 NW 12 16 1017.4 - 0.0 - - 10 - - - -
21/01:30pm 36.7 NNE 10 18 1017.6 - 0.0 - - 10 - - - -
21/01:00pm 36.7 NE 13 18 1018.0 - 0.0 - - 10 - - - -
21/12:30pm 35.3 NNE 15 19 1018.4 - 0.0 - - 10 - - - -
21/12:00pm 34.9 NNE 15 21 1018.8 F 0.0 Fine Mostly cloudy 30 - - - -
21/11:30am 34.0 NNE 16 20 1019.0 - 0.0 - - 10 - - - -
21/11:00am 33.9 NNE 16 22 1019.2 - 0.0 - - 10 - - - -
21/10:30am 32.8 NNE 18 22 1019.4 - 0.0 - - 10 - - - -
21/10:00am 31.7 NNE 18 25 1019.3 - 0.0 - - 10 - - - -
21/09:30am 31.5 NNE 18 23 1019.3 - 0.0 - - 10 - - - -
21/09:00am 29.7 NE 15 18 1019.2 F 0.2 Fine Partly cloudy 30 - - - -
21/08:30am 28.0 NE 13 18 1019.3 - 0.2 - - 10 - - - -
21/08:00am 26.1 NE 12 15 1019.3 - 0.2 - - 10 - - - -
21/07:30am 25.1 NE 13 17 1019.0 - 0.2 - - 10 - - - -
21/07:00am 24.1 NE 14 16 1018.7 - 0.2 - - 10 - - - -
21/06:30am 24.3 NE 15 19 1018.5 - 0.2 - - 10 - - - -
21/06:00am 24.1 NE 15 19 1018.2 F 0.2 Fine Partly cloudy 30 - - - -
21/05:30am 24.2 NNE 14 18 1018.1 - 0.2 - - 10 - - - -
21/05:00am 23.9 NNE 14 17 1018.0 - 0.2 - - 10 - - - -
21/04:30am 23.5 NNE 14 17 1018.0 - 0.2 - - 10 - - - -
21/04:00am 24.1 NNE 14 18 1018.1 - 0.2 - - 10 - - - -
21/03:30am 24.1 NE 9 14 1018.3 - 0.2 - - 10 - - - -
21/03:00am 24.6 ENE 16 21 1018.4 F 0.2 Fine Partly cloudy 35 - - - -
21/02:30am 25.8 ENE 15 21 1018.7 - 0.2 - - 10 - - - -
21/02:00am 25.7 ENE 14 19 1019.0 - 0.2 - - 10 - - - -
21/01:30am 25.9 ENE 14 19 1019.3 - 0.2 - - 10 - - - -
21/01:00am 26.2 ENE 15 21 1019.5 - 0.2 - - 10 - - - -
21/12:30am 26.4 ENE 15 20 1019.8 - 0.2 - - 10 - - - -
21/12:00am 25.7 E 13 17 1020.1 F 0.2 Fine Partly cloudy 35 - - - -
 
Date/Time
CDT
Temp

°C
Wind Pressure Rain
since 9am
mm
Weather Cloud Vis
km
Sea
Height
m
Swell
Dir
 
Speed
knots
Gust
knots
hPa Trend Height
m
Period
s
Dir
20/11:30pm 26.3 E 15 21 1020.3 - 0.2 - - 10 - - - -
20/11:00pm 26.1 E 15 20 1020.6 - 0.2 - - 10 - - - -
20/10:30pm 25.9 E 13 17 1021.0 - 0.2 - - 10 - - - -
20/10:00pm 25.1 E 12 16 1021.1 - 0.2 - - 10 - - - -

Other Formats:

Comma delimited format used in spreadsheet applications
http://www.bom.gov.au/fwo/IDS60701/IDS60701.94672.axf

JavaScript Object Notation format (JSON) in row-major order
http://www.bom.gov.au/fwo/IDS60701/IDS60701.94672.json